Time;durP1;ratioP1;P1;durP2;ratioP2;P2;SDS_P1;SDS_P2;PMS_P1;PMS_P2;Temp;Humidity;BMP_temperature;BMP_pressure;BME280_temperature;BME280_humidity;BME280_pressure;Samples;Min_cycle;Max_cycle;Signal;HPM_P1;HPM_P2
2021/12/24 00:03:03;;;;;;;5.20;4.77;;;9.60;99.90;;;;;;10504868;28;20205;-83
2021/12/24 00:08:06;;;;;;;4.53;4.23;;;9.60;99.90;;;;;;10504242;28;20280;-82
2021/12/24 00:13:12;;;;;;;4.50;4.10;;;9.70;99.90;;;;;;10505740;28;20192;-83
2021/12/24 00:18:25;;;;;;;4.33;4.03;;;9.70;99.90;;;;;;10505574;28;20285;-83
2021/12/24 00:40:40;;;;;;;5.60;4.63;;;9.90;99.90;;;;;;10499460;28;20225;-82
2021/12/24 00:45:44;;;;;;;4.03;3.77;;;9.90;99.90;;;;;;10480652;28;20307;-82
2021/12/24 00:50:56;;;;;;;5.10;4.70;;;9.80;99.90;;;;;;10496970;28;20219;-82
2021/12/24 00:55:58;;;;;;;4.33;3.97;;;9.80;99.90;;;;;;10499237;28;20203;-83
2021/12/24 01:01:01;;;;;;;4.33;3.70;;;9.90;99.90;;;;;;10498583;28;20227;-82
2021/12/24 01:06:05;;;;;;;4.10;3.70;;;9.90;99.90;;;;;;10498511;28;20696;-82
2021/12/24 01:11:09;;;;;;;4.03;3.27;;;9.90;99.90;;;;;;10497341;28;20275;-82
2021/12/24 01:16:20;;;;;;;4.20;3.90;;;9.80;99.90;;;;;;10496201;28;20193;-81
2021/12/24 01:21:38;;;;;;;3.90;3.60;;;9.90;99.90;;;;;;10495244;28;20227;-82
2021/12/24 01:26:47;;;;;;;3.90;3.60;;;9.80;99.90;;;;;;10495960;28;20583;-82
2021/12/24 01:42:45;;;;;;;3.80;3.50;;;9.60;99.90;;;;;;10496919;28;20208;-82
2021/12/24 01:47:49;;;;;;;4.80;3.40;;;9.50;99.90;;;;;;10496688;28;20663;-83
2021/12/24 01:52:55;;;;;;;3.23;3.00;;;9.50;99.90;;;;;;10480584;28;20199;-82
2021/12/24 01:57:59;;;;;;;4.10;3.70;;;9.50;99.90;;;;;;10496344;28;20298;-83
2021/12/24 02:03:01;;;;;;;4.00;3.60;;;9.50;99.90;;;;;;10492446;28;20218;-82
2021/12/24 02:08:05;;;;;;;5.57;3.80;;;9.50;99.90;;;;;;10498748;28;20228;-83
2021/12/24 02:13:07;;;;;;;4.60;3.50;;;9.40;99.90;;;;;;10499974;28;20231;-82
2021/12/24 02:18:40;;;;;;;4.57;3.77;;;9.50;99.90;;;;;;10493902;28;20277;-82
2021/12/24 02:28:59;;;;;;;3.60;3.30;;;9.70;99.90;;;;;;10484690;28;20326;-82
2021/12/24 02:34:02;;;;;;;3.60;3.20;;;9.80;99.90;;;;;;10503535;28;20184;-82
2021/12/24 02:39:06;;;;;;;3.53;3.23;;;9.90;99.90;;;;;;10503581;28;20224;-82
2021/12/24 02:44:08;;;;;;;3.67;3.47;;;9.90;99.90;;;;;;10504497;28;20255;-82
2021/12/24 02:49:14;;;;;;;3.80;3.43;;;9.90;99.90;;;;;;10503145;28;20248;-83
2021/12/24 02:54:18;;;;;;;3.50;3.20;;;9.90;99.90;;;;;;10499917;28;20306;-83
2021/12/24 02:59:25;;;;;;;3.80;3.23;;;9.90;99.90;;;;;;10499371;28;20255;-83
2021/12/24 03:04:29;;;;;;;6.40;3.80;;;9.90;99.90;;;;;;10477702;28;20601;-82
2021/12/24 03:09:33;;;;;;;3.93;3.60;;;9.90;99.90;;;;;;10477557;28;20238;-82
2021/12/24 03:14:35;;;;;;;3.30;3.10;;;9.90;99.90;;;;;;10507945;28;20188;-83
2021/12/24 03:19:38;;;;;;;5.20;3.30;;;9.90;99.90;;;;;;10514169;28;20221;-83
2021/12/24 03:24:42;;;;;;;4.53;3.67;;;9.90;99.90;;;;;;10516035;28;20205;-82
2021/12/24 03:29:44;;;;;;;3.50;3.20;;;10.00;99.90;;;;;;10487952;28;20307;-83
2021/12/24 03:34:46;;;;;;;4.07;3.67;;;10.00;99.90;;;;;;10503096;28;20197;-83
2021/12/24 03:39:50;;;;;;;3.30;3.00;;;10.00;99.90;;;;;;10487285;28;20307;-82
2021/12/24 03:44:58;;;;;;;3.60;3.40;;;10.10;99.90;;;;;;10509750;28;20223;-82
2021/12/24 03:50:06;;;;;;;4.00;3.57;;;10.10;99.90;;;;;;10510356;28;20232;-82
2021/12/24 03:55:10;;;;;;;4.00;3.70;;;10.10;99.90;;;;;;10510464;28;20189;-83
2021/12/24 04:00:17;;;;;;;3.97;3.63;;;10.20;99.90;;;;;;10489226;28;20232;-83
2021/12/24 04:05:19;;;;;;;3.97;3.67;;;10.20;99.90;;;;;;10506730;28;20200;-83
2021/12/24 04:10:52;;;;;;;3.90;3.60;;;10.10;99.90;;;;;;10495502;28;20228;-82
2021/12/24 04:16:06;;;;;;;5.47;3.40;;;10.10;99.90;;;;;;10509446;28;20200;-82
2021/12/24 04:26:37;;;;;;;4.47;3.23;;;10.00;99.90;;;;;;10504399;28;20212;-82
2021/12/24 04:31:43;;;;;;;3.33;3.03;;;9.90;99.90;;;;;;10482742;28;20684;-82
2021/12/24 04:38:02;;;;;;;4.53;3.33;;;9.80;99.90;;;;;;10500472;28;20264;-82
2021/12/24 05:04:48;;;;;;;3.40;3.20;;;9.60;99.90;;;;;;10498741;28;20228;-82
2021/12/24 05:09:50;;;;;;;5.17;3.70;;;9.70;99.90;;;;;;10498331;28;20212;-82
2021/12/24 05:14:54;;;;;;;3.97;3.67;;;9.90;99.90;;;;;;10501687;28;20272;-83
2021/12/24 05:26:01;;;;;;;4.00;3.70;;;10.30;99.90;;;;;;10497837;28;20231;-83
2021/12/24 05:31:05;;;;;;;4.00;3.70;;;10.40;99.90;;;;;;10501453;28;20646;-82
2021/12/24 05:36:07;;;;;;;4.03;3.70;;;10.50;99.90;;;;;;10502286;28;20212;-83
2021/12/24 05:41:10;;;;;;;4.40;4.00;;;10.50;99.90;;;;;;10485246;28;20242;-82
2021/12/24 05:46:13;;;;;;;4.30;4.00;;;10.50;99.90;;;;;;10486817;28;20310;-82
2021/12/24 05:51:23;;;;;;;3.70;3.50;;;10.50;99.90;;;;;;10499128;28;20220;-82
2021/12/24 05:56:45;;;;;;;3.67;3.37;;;10.50;99.90;;;;;;10499340;28;20192;-82
2021/12/24 06:01:55;;;;;;;4.00;3.40;;;10.50;99.90;;;;;;10502267;28;20243;-82
2021/12/24 06:06:58;;;;;;;4.70;4.30;;;10.50;99.90;;;;;;10501533;28;20514;-82
2021/12/24 06:12:00;;;;;;;4.23;3.70;;;10.50;99.90;;;;;;10477841;28;20216;-82
2021/12/24 06:17:10;;;;;;;4.83;4.43;;;10.50;99.90;;;;;;10499806;28;20276;-82
2021/12/24 06:22:12;;;;;;;4.17;3.73;;;10.50;99.90;;;;;;10510086;28;20212;-82
2021/12/24 06:27:14;;;;;;;4.10;3.80;;;10.40;99.90;;;;;;10503949;28;20668;-82
2021/12/24 06:32:18;;;;;;;5.33;4.83;;;10.40;99.90;;;;;;10494239;28;20216;-82
2021/12/24 06:37:20;;;;;;;4.43;4.10;;;10.40;99.90;;;;;;10495321;28;20220;-82
2021/12/24 06:42:23;;;;;;;4.80;4.40;;;10.50;99.90;;;;;;10493862;28;20212;-82
2021/12/24 06:47:26;;;;;;;5.10;3.97;;;10.40;99.90;;;;;;10496609;28;20220;-82
2021/12/24 06:52:28;;;;;;;4.30;4.00;;;10.50;99.90;;;;;;10486278;28;20216;-82
2021/12/24 06:57:30;;;;;;;4.57;4.27;;;10.50;99.90;;;;;;10503945;28;20203;-83
2021/12/24 07:02:36;;;;;;;4.33;3.97;;;10.50;99.90;;;;;;10488403;28;20200;-82
2021/12/24 07:07:38;;;;;;;4.83;4.43;;;10.50;99.90;;;;;;10505758;28;20307;-83
2021/12/24 07:12:40;;;;;;;5.27;4.83;;;10.60;99.90;;;;;;10506960;28;20208;-83
2021/12/24 07:17:45;;;;;;;4.73;4.30;;;10.50;99.90;;;;;;10506825;28;20201;-82
2021/12/24 07:22:47;;;;;;;5.83;4.40;;;10.50;99.90;;;;;;10508048;28;20274;-82
2021/12/24 07:27:49;;;;;;;6.10;5.20;;;10.50;99.90;;;;;;10508519;28;20300;-82
2021/12/24 07:32:53;;;;;;;4.83;4.47;;;10.50;99.90;;;;;;10509843;28;20201;-83
2021/12/24 07:37:55;;;;;;;4.00;3.70;;;10.40;99.90;;;;;;10511550;28;20228;-83
2021/12/24 07:42:57;;;;;;;4.40;4.00;;;10.40;99.90;;;;;;10513322;28;20680;-83
2021/12/24 07:48:10;;;;;;;4.93;4.40;;;10.40;99.90;;;;;;10499077;28;20235;-83
2021/12/24 07:53:14;;;;;;;3.80;3.50;;;10.40;99.90;;;;;;10503899;28;20197;-83
2021/12/24 07:58:17;;;;;;;4.40;4.10;;;10.40;99.90;;;;;;10504098;28;20216;-82
2021/12/24 08:03:21;;;;;;;4.97;4.57;;;10.40;99.90;;;;;;10499990;28;20222;-82
2021/12/24 08:08:23;;;;;;;4.30;4.00;;;10.40;99.90;;;;;;10499258;28;20221;-81
2021/12/24 08:13:25;;;;;;;4.50;4.20;;;10.40;99.90;;;;;;10501896;28;20209;-82
2021/12/24 08:18:29;;;;;;;4.67;4.27;;;10.40;99.90;;;;;;10499949;28;20252;-82
2021/12/24 08:23:31;;;;;;;4.07;3.77;;;10.40;99.90;;;;;;10483061;28;20226;-82
2021/12/24 08:28:33;;;;;;;8.50;4.23;;;10.40;99.90;;;;;;10499267;28;20211;-83
2021/12/24 08:33:36;;;;;;;5.80;4.67;;;10.40;99.90;;;;;;10499386;28;20197;-82
2021/12/24 08:38:39;;;;;;;4.70;3.97;;;10.40;99.90;;;;;;10501164;28;20208;-82
2021/12/24 08:43:41;;;;;;;4.50;4.10;;;10.50;99.90;;;;;;10503286;28;20193;-82
2021/12/24 08:48:45;;;;;;;5.27;4.77;;;10.50;99.90;;;;;;10501728;28;20217;-81
2021/12/24 08:53:47;;;;;;;4.80;4.40;;;10.50;99.90;;;;;;10484858;28;20192;-81
2021/12/24 08:58:49;;;;;;;4.73;4.33;;;10.50;99.90;;;;;;10501756;28;20228;-81
2021/12/24 09:03:53;;;;;;;4.87;4.47;;;10.50;99.90;;;;;;10501162;28;20291;-81
2021/12/24 09:08:55;;;;;;;6.43;4.33;;;10.50;99.90;;;;;;10500361;28;20217;-82
2021/12/24 09:13:57;;;;;;;4.33;4.03;;;10.50;99.90;;;;;;10498699;28;20193;-82
2021/12/24 09:19:06;;;;;;;4.07;3.77;;;10.50;99.90;;;;;;10496792;28;20315;-82
2021/12/24 09:24:08;;;;;;;4.30;4.10;;;10.50;99.90;;;;;;10497463;28;20253;-82
2021/12/24 09:29:11;;;;;;;4.90;4.40;;;10.60;99.90;;;;;;10488133;28;20341;-82
2021/12/24 09:34:15;;;;;;;4.50;4.13;;;10.50;99.90;;;;;;10495037;28;20447;-81
2021/12/24 09:39:17;;;;;;;8.30;4.20;;;10.50;99.90;;;;;;10495863;28;20219;-81
2021/12/24 09:44:19;;;;;;;4.40;4.10;;;10.50;99.90;;;;;;10494605;28;20212;-81
2021/12/24 09:49:24;;;;;;;4.97;4.67;;;10.50;99.90;;;;;;10495488;28;20703;-81
2021/12/24 09:54:26;;;;;;;4.87;4.47;;;10.50;99.90;;;;;;10494199;28;20193;-81
2021/12/24 09:59:29;;;;;;;4.00;3.70;;;10.40;99.90;;;;;;10455844;28;1113445;-82
2021/12/24 10:04:34;;;;;;;5.30;4.90;;;10.40;99.90;;;;;;10495325;28;21022;-81
2021/12/24 10:09:37;;;;;;;4.23;3.83;;;10.30;99.90;;;;;;10478286;28;20223;-81
2021/12/24 10:14:42;;;;;;;4.70;4.40;;;10.40;99.90;;;;;;10477436;28;20195;-81
2021/12/24 10:19:47;;;;;;;4.60;4.10;;;10.40;99.90;;;;;;10495455;28;20250;-81
2021/12/24 10:25:00;;;;;;;5.17;4.73;;;10.40;99.90;;;;;;10497684;28;20212;-82
2021/12/24 10:30:17;;;;;;;4.63;4.23;;;10.40;99.90;;;;;;10498224;28;20217;-82
2021/12/24 10:35:23;;;;;;;5.20;4.70;;;10.50;99.90;;;;;;10499164;28;20193;-82
2021/12/24 10:40:31;;;;;;;4.33;4.03;;;10.50;99.90;;;;;;10500125;28;20227;-83
2021/12/24 10:45:35;;;;;;;4.93;4.53;;;10.40;99.90;;;;;;10500250;28;20581;-83
2021/12/24 10:50:49;;;;;;;4.60;4.20;;;10.50;99.90;;;;;;10501842;28;20212;-83
2021/12/24 10:55:53;;;;;;;4.33;3.97;;;10.50;99.90;;;;;;10504064;28;20653;-83
2021/12/24 11:00:57;;;;;;;5.63;5.00;;;10.50;99.90;;;;;;10504157;28;20256;-83
2021/12/24 11:06:07;;;;;;;3.57;3.27;;;10.50;99.90;;;;;;10506727;28;20225;-83
2021/12/24 11:11:11;;;;;;;4.40;4.00;;;10.50;99.90;;;;;;10514515;28;20323;-82
2021/12/24 11:16:20;;;;;;;3.93;3.63;;;10.50;99.90;;;;;;10494299;28;20193;-82
2021/12/24 11:21:25;;;;;;;4.07;3.80;;;10.50;99.90;;;;;;10494165;28;20221;-82
2021/12/24 11:26:30;;;;;;;3.57;3.30;;;10.50;99.90;;;;;;10499299;28;20233;-82
2021/12/24 11:31:33;;;;;;;3.80;3.40;;;10.50;99.90;;;;;;10501660;28;20243;-83
2021/12/24 11:36:37;;;;;;;2.63;2.43;;;10.50;99.90;;;;;;10507691;28;20220;-83
2021/12/24 11:41:41;;;;;;;3.07;2.83;;;10.50;99.90;;;;;;10486879;28;20307;-82
2021/12/24 11:46:44;;;;;;;3.43;2.90;;;10.50;99.90;;;;;;10502345;28;20596;-82
2021/12/24 11:51:49;;;;;;;2.77;2.57;;;10.60;99.90;;;;;;10502777;28;20208;-82
2021/12/24 11:56:53;;;;;;;3.20;3.00;;;10.60;99.90;;;;;;10500642;28;20608;-82
2021/12/24 12:01:56;;;;;;;3.00;2.80;;;10.60;99.90;;;;;;10526557;22;20255;-78
2021/12/24 12:07:11;;;;;;;2.57;2.47;;;10.70;99.90;;;;;;10502151;28;20216;-77
2021/12/24 12:12:16;;;;;;;2.90;2.70;;;10.70;99.90;;;;;;10501405;28;20212;-77
2021/12/24 12:17:24;;;;;;;3.13;2.93;;;10.80;99.90;;;;;;10498989;28;20219;-78
2021/12/24 12:22:47;;;;;;;2.43;2.33;;;10.80;99.90;;;;;;10499952;28;20629;-78
2021/12/24 12:27:54;;;;;;;2.50;2.30;;;10.90;99.90;;;;;;10500932;28;20216;-78
2021/12/24 12:33:07;;;;;;;2.03;1.93;;;10.90;99.90;;;;;;10499620;28;20269;-77
2021/12/24 12:38:33;;;;;;;5.60;1.53;;;11.00;99.90;;;;;;10494586;28;20193;-78
2021/12/24 12:43:37;;;;;;;2.27;2.17;;;11.00;99.90;;;;;;10500465;28;20192;-78
2021/12/24 12:48:44;;;;;;;2.37;2.17;;;11.10;99.90;;;;;;10498759;28;20232;-78
2021/12/24 12:53:50;;;;;;;2.40;2.30;;;11.00;99.90;;;;;;10499071;28;20192;-77
2021/12/24 12:58:58;;;;;;;2.10;2.00;;;11.00;99.90;;;;;;10498737;28;20272;-78
2021/12/24 13:04:12;;;;;;;2.40;2.30;;;11.00;99.90;;;;;;10498365;28;20581;-78
2021/12/24 13:09:17;;;;;;;2.00;1.90;;;11.00;99.90;;;;;;10498569;28;20224;-78
2021/12/24 13:14:21;;;;;;;2.20;2.10;;;11.10;99.90;;;;;;10498366;28;20566;-78
2021/12/24 13:19:30;;;;;;;1.20;1.20;;;11.10;99.90;;;;;;10499486;28;20221;-78
2021/12/24 13:24:34;;;;;;;2.30;2.20;;;11.10;99.90;;;;;;10496466;28;20228;-78
2021/12/24 13:29:36;;;;;;;2.07;1.97;;;11.10;99.90;;;;;;10496992;28;20307;-79
2021/12/24 13:34:39;;;;;;;1.80;1.70;;;11.20;99.90;;;;;;10497864;28;20219;-77
2021/12/24 13:39:51;;;;;;;1.40;1.30;;;11.10;99.90;;;;;;10496011;28;20217;-78
2021/12/24 13:45:00;;;;;;;3.20;2.40;;;11.10;99.90;;;;;;10496199;28;20219;-79
2021/12/24 13:50:23;;;;;;;1.97;1.87;;;11.10;99.90;;;;;;10495597;28;20224;-78
2021/12/24 13:55:29;;;;;;;2.13;2.03;;;11.10;99.90;;;;;;10496833;28;20204;-78
2021/12/24 14:00:34;;;;;;;2.17;2.07;;;11.00;99.90;;;;;;10495239;28;20227;-78
2021/12/24 14:05:46;;;;;;;2.30;2.20;;;11.10;99.90;;;;;;10498976;28;20729;-78
2021/12/24 14:10:50;;;;;;;2.33;1.80;;;11.00;99.90;;;;;;10503301;28;20691;-78
2021/12/24 14:16:05;;;;;;;2.33;2.23;;;11.00;99.90;;;;;;10498210;28;20719;-79
2021/12/24 14:26:45;;;;;;;3.70;2.40;;;11.10;99.90;;;;;;10499140;28;20254;-77
2021/12/24 14:31:52;;;;;;;2.50;2.40;;;11.10;99.90;;;;;;10499547;28;20212;-79
2021/12/24 14:36:58;;;;;;;2.50;2.40;;;11.10;99.90;;;;;;10498744;28;20192;-79
2021/12/24 14:42:20;;;;;;;1.90;1.80;;;11.10;99.90;;;;;;10499496;28;20208;-79
2021/12/24 14:47:27;;;;;;;2.43;2.33;;;11.10;99.90;;;;;;10497230;28;20216;-78
2021/12/24 14:52:30;;;;;;;1.87;1.77;;;11.00;99.90;;;;;;10499939;28;20216;-78
2021/12/24 14:57:35;;;;;;;2.00;1.90;;;11.00;99.90;;;;;;10498601;28;20185;-78
2021/12/24 15:02:40;;;;;;;1.90;1.80;;;11.00;99.90;;;;;;10495329;28;20299;-79
2021/12/24 15:07:42;;;;;;;2.40;2.30;;;11.00;99.90;;;;;;10499432;28;20232;-78
2021/12/24 15:12:50;;;;;;;2.20;2.10;;;11.00;99.90;;;;;;10507211;28;20212;-78
2021/12/24 15:17:52;;;;;;;2.13;2.03;;;10.90;99.90;;;;;;10487776;28;20251;-78
2021/12/24 15:22:55;;;;;;;2.20;2.10;;;10.90;99.90;;;;;;10502668;28;20575;-78
2021/12/24 15:28:06;;;;;;;4.23;2.30;;;10.80;99.90;;;;;;10501822;28;20270;-77
2021/12/24 15:33:09;;;;;;;2.03;1.93;;;10.80;99.90;;;;;;10501736;28;20271;-77
2021/12/24 15:38:11;;;;;;;2.00;1.90;;;10.80;99.90;;;;;;10500848;28;20538;-78
2021/12/24 15:43:16;;;;;;;2.10;2.00;;;10.80;99.90;;;;;;10501122;28;20280;-78
2021/12/24 15:48:18;;;;;;;2.13;2.03;;;10.80;99.90;;;;;;10501705;28;20212;-78
2021/12/24 15:53:21;;;;;;;2.20;2.10;;;10.80;99.90;;;;;;10500952;28;20268;-78
2021/12/24 15:58:24;;;;;;;1.93;1.83;;;10.80;99.90;;;;;;10501505;28;20212;-78
2021/12/24 16:03:27;;;;;;;2.10;1.93;;;10.80;99.90;;;;;;10501949;28;20683;-77
2021/12/24 16:08:29;;;;;;;2.60;2.50;;;10.90;99.90;;;;;;10501730;28;20226;-78
2021/12/24 16:13:32;;;;;;;2.07;1.97;;;10.90;99.90;;;;;;10502024;28;20203;-77
2021/12/24 16:18:34;;;;;;;3.23;3.03;;;10.90;99.90;;;;;;10502269;28;20235;-78
2021/12/24 16:23:41;;;;;;;2.70;2.60;;;10.90;99.90;;;;;;10499031;28;20193;-77
2021/12/24 16:28:44;;;;;;;2.70;2.50;;;10.80;99.90;;;;;;10500467;28;20244;-78
2021/12/24 16:33:46;;;;;;;3.60;3.30;;;10.70;99.90;;;;;;10500080;28;20280;-78
2021/12/24 16:38:49;;;;;;;3.33;3.03;;;10.70;99.90;;;;;;10498801;28;20210;-78
2021/12/24 16:43:52;;;;;;;3.00;2.80;;;10.70;99.90;;;;;;10500034;28;20204;-78
2021/12/24 16:48:54;;;;;;;2.87;2.67;;;10.70;99.90;;;;;;10499439;28;20753;-79
2021/12/24 16:53:56;;;;;;;3.13;2.93;;;10.70;99.90;;;;;;10499686;28;20576;-78
2021/12/24 16:59:00;;;;;;;3.30;3.10;;;10.70;99.90;;;;;;10498169;28;20220;-77
2021/12/24 17:04:02;;;;;;;3.40;3.10;;;10.70;99.90;;;;;;10499675;28;20234;-77
2021/12/24 17:09:04;;;;;;;3.23;2.93;;;10.60;99.90;;;;;;10499196;28;20239;-77
2021/12/24 17:14:08;;;;;;;3.67;3.33;;;10.70;99.90;;;;;;10498790;28;20196;-77
2021/12/24 17:19:12;;;;;;;3.20;2.90;;;10.70;99.90;;;;;;10499340;28;20213;-77
2021/12/24 17:24:14;;;;;;;2.90;2.70;;;10.60;99.90;;;;;;10499096;28;20197;-79
2021/12/24 17:29:19;;;;;;;3.30;3.00;;;10.60;99.90;;;;;;10501131;28;20591;-79
2021/12/24 17:34:21;;;;;;;3.33;3.13;;;10.60;99.90;;;;;;10499778;28;20204;-79
2021/12/24 17:39:24;;;;;;;2.80;2.60;;;10.60;99.90;;;;;;10500285;28;20288;-79
2021/12/24 17:44:27;;;;;;;4.30;4.00;;;10.50;99.90;;;;;;10501171;28;20191;-79
2021/12/24 17:49:30;;;;;;;3.23;3.03;;;10.60;99.90;;;;;;10500247;28;20219;-79
2021/12/24 17:54:32;;;;;;;3.40;3.10;;;10.50;99.90;;;;;;10501960;28;20253;-80
2021/12/24 17:59:36;;;;;;;2.80;2.70;;;10.50;99.90;;;;;;10500807;28;20603;-79
2021/12/24 18:04:38;;;;;;;4.13;3.10;;;10.50;99.90;;;;;;10498437;28;20295;-79
2021/12/24 18:09:40;;;;;;;3.80;3.50;;;10.50;99.90;;;;;;10498970;28;20216;-80
2021/12/24 18:14:44;;;;;;;4.00;3.70;;;10.50;99.90;;;;;;10500616;28;20632;-80
2021/12/24 18:19:46;;;;;;;3.33;3.13;;;10.50;99.90;;;;;;10499317;28;20581;-79
2021/12/24 18:24:48;;;;;;;3.40;3.20;;;10.50;99.90;;;;;;10500996;28;20192;-79
2021/12/24 18:29:51;;;;;;;3.87;3.57;;;10.50;99.90;;;;;;10500876;28;20224;-79
2021/12/24 18:34:53;;;;;;;7.30;3.47;;;10.50;99.90;;;;;;10502289;28;20196;-78
2021/12/24 18:39:55;;;;;;;3.73;3.43;;;10.50;99.90;;;;;;10501679;28;20594;-76
2021/12/24 18:44:59;;;;;;;4.23;3.90;;;10.50;99.90;;;;;;10499230;28;20188;-77
2021/12/24 18:50:01;;;;;;;4.10;3.70;;;10.50;99.90;;;;;;10500720;28;20704;-78
2021/12/24 18:55:03;;;;;;;3.87;3.67;;;10.50;99.90;;;;;;10498300;28;20196;-78
2021/12/24 19:00:08;;;;;;;4.00;3.70;;;10.60;99.90;;;;;;10494905;28;20224;-78
2021/12/24 19:05:10;;;;;;;4.40;4.07;;;10.60;99.90;;;;;;10494059;28;20196;-78
2021/12/24 19:10:12;;;;;;;4.20;3.90;;;10.60;99.90;;;;;;10498042;28;20224;-79
2021/12/24 19:15:18;;;;;;;4.43;4.13;;;10.60;99.90;;;;;;10498258;28;20204;-80
2021/12/24 19:20:24;;;;;;;5.23;4.70;;;10.60;99.90;;;;;;10494888;28;20208;-78
2021/12/24 19:25:27;;;;;;;4.37;4.07;;;10.70;99.90;;;;;;10495684;28;20598;-80
2021/12/24 19:30:30;;;;;;;4.10;3.80;;;10.70;99.90;;;;;;10494932;28;20224;-78
2021/12/24 19:35:33;;;;;;;4.00;3.70;;;10.60;99.90;;;;;;10493103;28;20196;-78
2021/12/24 19:40:36;;;;;;;4.50;4.10;;;10.70;99.90;;;;;;10495215;28;20240;-79
2021/12/24 19:45:40;;;;;;;5.65;4.00;;;10.60;99.90;;;;;;10495569;28;20231;-78
2021/12/24 19:50:43;;;;;;;3.93;3.73;;;10.60;99.90;;;;;;10496264;28;20464;-79
2021/12/24 19:55:45;;;;;;;4.67;4.27;;;10.70;99.90;;;;;;10497854;28;20196;-79
2021/12/24 20:00:49;;;;;;;3.93;3.63;;;10.70;99.90;;;;;;10503971;28;20222;-79
2021/12/24 20:05:51;;;;;;;5.17;4.77;;;10.70;99.90;;;;;;10503679;28;20207;-79
2021/12/24 20:10:54;;;;;;;5.10;4.70;;;10.70;99.90;;;;;;10505565;28;20219;-78
2021/12/24 20:15:57;;;;;;;4.97;4.57;;;10.70;99.90;;;;;;10503708;28;20203;-78
2021/12/24 20:20:59;;;;;;;5.83;5.33;;;10.70;99.90;;;;;;10504958;28;20212;-79
2021/12/24 20:26:02;;;;;;;5.00;4.63;;;10.70;99.90;;;;;;10505052;28;20256;-78
2021/12/24 20:31:09;;;;;;;4.70;4.30;;;10.70;99.90;;;;;;10503330;28;20701;-79
2021/12/24 20:36:11;;;;;;;4.50;4.20;;;10.70;99.90;;;;;;10502759;28;20223;-77
2021/12/24 20:41:14;;;;;;;5.13;4.73;;;10.80;99.90;;;;;;10501937;28;20209;-78
2021/12/24 20:46:17;;;;;;;5.13;4.77;;;10.80;99.90;;;;;;10500396;28;20219;-78
2021/12/24 20:51:19;;;;;;;5.30;4.90;;;10.80;99.90;;;;;;10503042;28;20204;-78
2021/12/24 20:56:22;;;;;;;4.47;4.17;;;10.80;99.90;;;;;;10503435;28;20185;-78
2021/12/24 21:01:25;;;;;;;5.17;4.77;;;10.80;99.90;;;;;;10502657;28;20228;-78
2021/12/24 21:06:28;;;;;;;6.00;5.50;;;10.80;99.90;;;;;;10501573;28;20200;-78
2021/12/24 21:11:30;;;;;;;4.90;4.60;;;10.80;99.90;;;;;;10501591;28;20218;-77
2021/12/24 21:16:34;;;;;;;5.37;4.97;;;10.70;99.90;;;;;;10502360;28;20275;-78
2021/12/24 21:21:37;;;;;;;5.50;5.10;;;10.70;99.90;;;;;;10503027;28;20221;-78
2021/12/24 21:26:39;;;;;;;5.63;5.20;;;10.70;99.90;;;;;;10503068;28;20246;-78
2021/12/24 21:31:42;;;;;;;5.80;5.40;;;10.70;99.90;;;;;;10502483;28;20217;-78
2021/12/24 21:36:45;;;;;;;6.23;5.73;;;10.70;99.90;;;;;;10503159;28;20279;-78
2021/12/24 21:41:47;;;;;;;6.63;6.20;;;10.80;99.90;;;;;;10502356;28;20212;-79
2021/12/24 21:46:50;;;;;;;6.40;5.90;;;10.70;99.90;;;;;;10502259;28;20223;-78
2021/12/24 21:51:52;;;;;;;6.23;5.73;;;10.80;99.90;;;;;;10501952;28;20230;-78
2021/12/24 21:56:55;;;;;;;6.07;5.57;;;10.80;99.90;;;;;;10500802;28;20232;-79
2021/12/24 22:01:58;;;;;;;6.57;5.97;;;10.80;99.90;;;;;;10503302;28;20311;-79
2021/12/24 22:12:20;;;;;;;5.47;5.07;;;10.80;99.90;;;;;;10500959;28;20561;-78
2021/12/24 22:17:24;;;;;;;5.67;5.17;;;10.80;99.90;;;;;;10501318;28;20191;-77
2021/12/24 22:22:32;;;;;;;6.47;5.30;;;10.80;99.90;;;;;;10497417;28;20638;-78
2021/12/24 22:27:37;;;;;;;6.53;5.90;;;10.80;99.90;;;;;;10496762;28;20688;-78
2021/12/24 22:32:40;;;;;;;6.97;6.37;;;10.80;99.90;;;;;;10496807;28;20213;-78
2021/12/24 22:37:43;;;;;;;6.93;6.33;;;10.80;99.90;;;;;;10500170;28;20188;-77
2021/12/24 22:42:45;;;;;;;6.60;6.00;;;10.80;99.90;;;;;;10498494;28;20224;-78
2021/12/24 22:47:49;;;;;;;7.80;7.00;;;10.80;99.90;;;;;;10498292;28;20223;-78
2021/12/24 22:52:52;;;;;;;7.93;7.13;;;10.80;99.90;;;;;;10498517;28;20232;-80
2021/12/24 22:57:56;;;;;;;7.20;6.57;;;10.80;99.90;;;;;;10496988;28;20263;-81
2021/12/24 23:03:00;;;;;;;6.90;6.30;;;10.80;99.90;;;;;;10503238;28;20224;-78
2021/12/24 23:08:02;;;;;;;6.70;6.13;;;10.70;99.90;;;;;;10504225;28;20318;-78
2021/12/24 23:13:04;;;;;;;6.27;5.70;;;10.70;99.90;;;;;;10503543;28;20193;-80
2021/12/24 23:18:10;;;;;;;6.30;5.77;;;10.70;99.90;;;;;;10502681;28;20257;-79
2021/12/24 23:23:12;;;;;;;6.20;5.70;;;10.60;99.90;;;;;;10504481;28;20193;-79
2021/12/24 23:28:14;;;;;;;8.03;7.23;;;10.50;99.90;;;;;;10503112;28;20291;-78
2021/12/24 23:33:17;;;;;;;7.60;6.90;;;10.50;99.90;;;;;;10509043;28;20258;-78
2021/12/24 23:38:19;;;;;;;7.57;6.90;;;10.50;99.90;;;;;;10511588;28;20559;-78
2021/12/24 23:43:26;;;;;;;7.17;6.20;;;10.50;99.90;;;;;;10505425;28;20207;-78
2021/12/24 23:48:31;;;;;;;7.07;6.37;;;10.60;99.90;;;;;;10505704;28;20220;-78
2021/12/24 23:53:33;;;;;;;8.30;7.50;;;10.50;99.90;;;;;;10504659;28;20227;-77
2021/12/24 23:58:37;;;;;;;9.57;8.57;;;10.50;99.90;;;;;;10502777;28;20653;-78
